createdAt,value
2017-08-20T00:01:18.280Z,70.00
2017-08-20T00:03:45.763Z,70.30
2017-08-20T00:06:13.236Z,70.30
2017-08-20T00:08:40.723Z,70.30
2017-08-20T00:11:08.955Z,70.00
2017-08-20T00:13:36.467Z,70.00
2017-08-20T00:16:03.951Z,69.90
2017-08-20T00:18:31.423Z,70.10
2017-08-20T00:20:58.940Z,69.90
2017-08-20T00:23:27.190Z,69.90
2017-08-20T00:25:54.772Z,69.90
2017-08-20T00:28:23.023Z,70.10
2017-08-20T00:30:50.489Z,70.80
2017-08-20T00:33:17.976Z,70.10
2017-08-20T00:35:46.211Z,70.20
2017-08-20T00:38:13.699Z,70.20
2017-08-20T00:40:41.977Z,70.00
2017-08-20T00:43:10.219Z,70.00
2017-08-20T00:45:37.719Z,70.10
2017-08-20T00:48:05.960Z,70.10
2017-08-20T00:50:33.453Z,70.00
2017-08-20T00:53:01.711Z,70.00
2017-08-20T00:55:29.175Z,70.00
2017-08-20T00:57:57.427Z,70.40
2017-08-20T01:00:24.896Z,70.30
2017-08-20T01:02:52.391Z,70.30
2017-08-20T01:05:19.891Z,70.30
2017-08-20T01:07:47.366Z,70.10
2017-08-20T01:10:14.843Z,70.30
2017-08-20T01:12:43.083Z,70.30
2017-08-20T01:15:10.575Z,70.30
2017-08-20T01:17:38.816Z,71.10
2017-08-20T01:20:06.316Z,70.30
2017-08-20T01:22:34.567Z,70.10
2017-08-20T01:25:02.164Z,70.10
2017-08-20T01:27:30.425Z,70.00
2017-08-20T01:29:58.663Z,70.00
2017-08-20T01:32:26.144Z,70.00
2017-08-20T01:34:53.624Z,69.80
2017-08-20T01:37:21.858Z,69.70
2017-08-20T01:39:49.560Z,69.70
2017-08-20T01:42:17.799Z,69.70
2017-08-20T01:44:45.273Z,69.70
2017-08-20T01:47:12.851Z,69.40
2017-08-20T01:49:40.343Z,69.40
2017-08-20T01:52:07.840Z,69.40
2017-08-20T01:54:35.310Z,69.00
2017-08-20T01:57:02.808Z,69.20
2017-08-20T01:59:30.344Z,69.10
2017-08-20T02:01:58.584Z,69.00
2017-08-20T02:04:26.071Z,69.00
2017-08-20T02:06:53.548Z,69.00
2017-08-20T02:09:21.820Z,69.00
2017-08-20T02:11:50.070Z,69.00
2017-08-20T02:14:17.549Z,69.00
2017-08-20T02:16:45.820Z,69.50
2017-08-20T02:19:13.291Z,68.90
2017-08-20T02:21:41.531Z,69.20
2017-08-20T02:24:09.017Z,69.10
2017-08-20T02:26:37.260Z,69.90
2017-08-20T02:29:04.751Z,69.50
2017-08-20T02:31:33.068Z,69.50
2017-08-20T02:34:00.539Z,69.40
2017-08-20T02:36:28.023Z,69.30
2017-08-20T02:38:55.496Z,69.20
2017-08-20T02:41:23.175Z,69.20
2017-08-20T02:43:51.428Z,69.00
2017-08-20T02:46:18.908Z,68.90
2017-08-20T02:48:47.167Z,69.50
2017-08-20T02:51:14.742Z,69.50
2017-08-20T02:53:43.008Z,69.00
2017-08-20T02:56:11.269Z,69.50
2017-08-20T02:58:38.760Z,68.90
2017-08-20T03:01:07.028Z,69.10
2017-08-20T03:03:35.264Z,69.20
2017-08-20T03:06:02.767Z,69.00
2017-08-20T03:08:31.004Z,69.10
2017-08-20T03:10:58.505Z,69.10
2017-08-20T03:13:26.756Z,69.10
2017-08-20T03:15:54.232Z,69.10
2017-08-20T03:18:22.491Z,69.20
2017-08-20T03:20:49.962Z,69.20
2017-08-20T03:23:18.208Z,69.40
2017-08-20T03:25:45.807Z,69.20
2017-08-20T03:28:14.047Z,70.10
2017-08-20T03:30:41.548Z,70.10
2017-08-20T03:33:09.793Z,70.30
2017-08-20T03:35:37.264Z,70.10
2017-08-20T03:38:04.752Z,70.10
2017-08-20T03:40:33.046Z,70.30
2017-08-20T03:43:00.536Z,70.40
2017-08-20T03:45:28.015Z,70.30
2017-08-20T03:47:55.593Z,70.50
2017-08-20T03:50:23.851Z,70.80
2017-08-20T03:52:51.325Z,70.60
2017-08-20T03:55:19.583Z,70.70
2017-08-20T03:57:47.160Z,70.60
2017-08-20T04:00:15.447Z,70.70
2017-08-20T04:02:42.940Z,70.70
2017-08-20T04:05:10.414Z,70.70
2017-08-20T04:07:37.907Z,70.70
2017-08-20T04:10:05.396Z,70.70
2017-08-20T04:12:32.873Z,70.90
2017-08-20T04:15:00.367Z,70.90
2017-08-20T04:17:27.875Z,71.00
2017-08-20T04:19:55.371Z,70.90
2017-08-20T04:22:22.851Z,71.20
2017-08-20T04:24:51.095Z,71.20
2017-08-20T04:27:18.607Z,71.20
2017-08-20T04:29:46.088Z,71.40
2017-08-20T04:32:13.583Z,71.30
2017-08-20T04:34:41.060Z,71.10
2017-08-20T04:37:08.529Z,71.30
2017-08-20T04:39:36.779Z,71.50
2017-08-20T04:42:04.259Z,71.50
2017-08-20T04:44:32.516Z,70.90
2017-08-20T04:46:59.992Z,70.90
2017-08-20T04:49:28.237Z,71.00
2017-08-20T04:51:55.730Z,70.90
2017-08-20T04:54:23.983Z,70.90
2017-08-20T04:56:51.479Z,70.90
2017-08-20T04:59:18.971Z,70.90
2017-08-20T05:01:46.447Z,71.60
2017-08-20T05:04:13.936Z,70.90
2017-08-20T05:06:42.207Z,71.40
2017-08-20T05:09:09.720Z,71.20
2017-08-20T05:11:37.275Z,71.00
2017-08-20T05:14:04.756Z,71.00
2017-08-20T05:16:32.239Z,71.40
2017-08-20T05:19:00.487Z,71.40
2017-08-20T05:21:27.998Z,71.20
2017-08-20T05:23:55.471Z,71.10
2017-08-20T05:26:22.952Z,71.10
2017-08-20T05:28:50.433Z,71.30
2017-08-20T05:31:17.924Z,71.30
2017-08-20T05:33:46.183Z,71.40
2017-08-20T05:36:13.660Z,71.20
2017-08-20T05:38:41.903Z,71.20
2017-08-20T05:41:09.387Z,71.20
2017-08-20T05:43:36.874Z,71.60
2017-08-20T05:46:04.372Z,71.40
2017-08-20T05:48:31.843Z,71.20
2017-08-20T05:50:59.328Z,71.30
2017-08-20T05:53:26.829Z,71.00
2017-08-20T05:55:54.345Z,70.90
2017-08-20T05:58:22.620Z,70.90
2017-08-20T06:00:50.861Z,71.00
2017-08-20T06:03:18.339Z,70.90
2017-08-20T06:05:46.600Z,71.40
2017-08-20T06:08:14.076Z,71.00
2017-08-20T06:10:42.349Z,70.90
2017-08-20T06:13:09.823Z,70.90
2017-08-20T06:15:38.075Z,70.70
2017-08-20T06:18:05.567Z,70.70
2017-08-20T06:20:33.043Z,70.40
2017-08-20T06:23:00.536Z,70.50
2017-08-20T06:25:28.008Z,70.30
2017-08-20T06:27:55.484Z,70.20
2017-08-20T06:30:23.760Z,70.10
2017-08-20T06:32:51.995Z,69.80
2017-08-20T06:35:19.516Z,69.80
2017-08-20T06:37:46.996Z,70.00
2017-08-20T06:40:14.471Z,69.60
2017-08-20T06:42:41.960Z,69.40
2017-08-20T06:45:09.432Z,69.10
2017-08-20T06:47:36.931Z,68.90
2017-08-20T06:50:04.409Z,68.30
2017-08-20T06:52:31.885Z,68.10
2017-08-20T06:54:59.377Z,67.50
2017-08-20T06:57:26.867Z,67.30
2017-08-20T06:59:54.364Z,67.30
2017-08-20T07:02:21.842Z,66.90
2017-08-20T07:04:50.087Z,66.80
2017-08-20T07:07:17.578Z,66.80
2017-08-20T07:09:45.823Z,66.90
2017-08-20T07:12:13.324Z,66.80
2017-08-20T07:14:40.796Z,66.90
2017-08-20T07:17:08.267Z,67.00
2017-08-20T07:19:35.751Z,66.70
2017-08-20T07:22:03.229Z,67.20
2017-08-20T07:24:30.727Z,67.50
2017-08-20T07:26:58.224Z,67.50
2017-08-20T07:29:25.718Z,68.40
2017-08-20T07:31:53.974Z,69.50
2017-08-20T07:34:21.455Z,69.50
2017-08-20T07:36:49.712Z,68.90
2017-08-20T07:39:17.951Z,69.50
2017-08-20T07:41:45.434Z,70.00
2017-08-20T07:44:12.927Z,70.30
2017-08-20T07:46:41.163Z,70.90
2017-08-20T07:49:08.668Z,70.80
2017-08-20T07:51:36.142Z,71.20
2017-08-20T07:54:03.618Z,70.60
2017-08-20T07:56:31.179Z,71.10
2017-08-20T07:58:58.679Z,72.00
2017-08-20T08:01:26.939Z,71.10
2017-08-20T08:03:54.420Z,71.10
2017-08-20T08:06:22.660Z,70.50
2017-08-20T08:08:50.152Z,70.50
2017-08-20T08:11:17.732Z,71.00
2017-08-20T08:13:45.249Z,70.10
2017-08-20T08:16:12.723Z,69.60
2017-08-20T08:18:40.198Z,69.40
2017-08-20T08:21:07.694Z,68.90
2017-08-20T08:23:35.172Z,69.10
2017-08-20T08:26:02.675Z,69.10
2017-08-20T08:28:30.915Z,68.70
2017-08-20T08:30:58.388Z,68.70
2017-08-20T08:33:25.904Z,68.70
2017-08-20T08:35:53.408Z,69.40
2017-08-20T08:38:20.935Z,68.80
2017-08-20T08:40:48.420Z,69.40
2017-08-20T08:43:15.896Z,67.70
2017-08-20T08:45:44.154Z,65.50
2017-08-20T08:48:11.628Z,65.50
2017-08-20T08:50:39.887Z,65.40
2017-08-20T08:53:07.480Z,65.40
2017-08-20T08:55:34.964Z,65.10
2017-08-20T08:58:02.464Z,62.70
2017-08-20T09:00:29.955Z,62.30
2017-08-20T09:02:57.459Z,62.60
2017-08-20T09:05:24.933Z,62.80
2017-08-20T09:07:52.408Z,62.30
2017-08-20T09:10:20.681Z,61.80
2017-08-20T09:12:48.932Z,61.80
2017-08-20T09:15:16.420Z,61.80
2017-08-20T09:17:43.900Z,61.90
2017-08-20T09:20:11.370Z,60.60
2017-08-20T09:22:38.863Z,60.60
2017-08-20T09:25:06.367Z,59.50
2017-08-20T09:27:33.859Z,58.80
2017-08-20T09:30:01.377Z,58.90
2017-08-20T09:32:29.616Z,58.50
2017-08-20T09:34:57.112Z,58.40
2017-08-20T09:37:25.359Z,58.50
2017-08-20T09:39:52.869Z,58.50
2017-08-20T09:42:20.344Z,59.10
2017-08-20T09:44:47.815Z,58.70
2017-08-20T09:47:15.332Z,58.50
2017-08-20T09:49:43.580Z,57.50
2017-08-20T09:52:11.073Z,57.50
2017-08-20T09:54:38.555Z,56.90
2017-08-20T09:57:06.075Z,56.50
2017-08-20T09:59:33.576Z,55.90
2017-08-20T10:02:01.049Z,55.60
2017-08-20T10:04:28.559Z,56.20
2017-08-20T10:06:56.804Z,56.10
2017-08-20T10:09:24.279Z,56.10
2017-08-20T10:11:52.536Z,55.90
2017-08-20T10:14:20.014Z,55.90
2017-08-20T10:16:48.283Z,56.20
2017-08-20T10:19:16.525Z,56.40
2017-08-20T10:21:44.005Z,56.30
2017-08-20T10:24:11.509Z,56.90
2017-08-20T10:26:38.976Z,57.70
2017-08-20T10:29:06.476Z,57.50
2017-08-20T10:31:33.949Z,57.30
2017-08-20T10:34:02.205Z,56.80
2017-08-20T10:36:29.700Z,56.80
2017-08-20T10:38:57.251Z,55.80
2017-08-20T10:41:25.516Z,56.30
2017-08-20T10:43:52.989Z,55.90
2017-08-20T10:46:20.468Z,56.70
2017-08-20T10:48:47.955Z,55.40
2017-08-20T10:51:15.424Z,54.80
2017-08-20T10:53:42.924Z,55.10
2017-08-20T10:56:10.394Z,55.50
2017-08-20T10:58:37.870Z,55.90
2017-08-20T11:01:05.384Z,55.20
2017-08-20T11:03:32.851Z,55.30
2017-08-20T11:06:01.121Z,56.20
2017-08-20T11:08:29.364Z,56.20
2017-08-20T11:10:56.837Z,55.80
2017-08-20T11:13:24.322Z,55.30
2017-08-20T11:15:51.796Z,55.50
2017-08-20T11:18:19.323Z,55.20
2017-08-20T11:20:46.809Z,55.10
2017-08-20T11:23:14.289Z,55.30
2017-08-20T11:25:41.783Z,55.30
2017-08-20T11:28:09.260Z,55.30
2017-08-20T11:30:38.273Z,55.00
2017-08-20T11:33:05.753Z,55.20
2017-08-20T11:35:33.239Z,55.50
2017-08-20T11:38:00.760Z,55.20
2017-08-20T11:40:28.243Z,53.90
2017-08-20T11:42:55.739Z,52.60
2017-08-20T11:45:23.220Z,52.00
2017-08-20T11:47:50.695Z,52.10
2017-08-20T11:50:18.188Z,52.20
2017-08-20T11:52:45.664Z,52.50
2017-08-20T11:55:13.224Z,52.60
2017-08-20T11:57:40.700Z,53.20
2017-08-20T12:00:08.944Z,52.30
2017-08-20T12:02:36.488Z,52.10
2017-08-20T12:05:03.969Z,52.20
2017-08-20T12:07:31.477Z,52.20
2017-08-20T12:09:58.944Z,52.10
2017-08-20T12:12:26.428Z,51.70
2017-08-20T12:14:53.937Z,51.20
2017-08-20T12:17:22.172Z,51.70
2017-08-20T12:19:49.668Z,51.70
2017-08-20T12:22:17.988Z,52.20
2017-08-20T12:24:46.019Z,52.20
2017-08-20T12:27:14.275Z,52.40
2017-08-20T12:29:41.856Z,52.40
2017-08-20T12:32:10.123Z,51.90
2017-08-20T12:34:37.596Z,51.80
2017-08-20T12:37:05.080Z,51.60
2017-08-20T12:39:32.646Z,51.70
2017-08-20T12:42:00.123Z,51.60
2017-08-20T12:44:27.632Z,52.10
2017-08-20T12:46:55.188Z,50.90
2017-08-20T12:49:22.665Z,50.00
2017-08-20T12:51:51.362Z,50.10
2017-08-20T12:54:18.888Z,50.50
2017-08-20T12:56:46.385Z,50.20
2017-08-20T12:59:13.865Z,50.40
2017-08-20T13:01:41.339Z,50.70
2017-08-20T13:04:08.839Z,50.20
2017-08-20T13:06:36.324Z,50.70
2017-08-20T13:09:03.877Z,49.70
2017-08-20T13:11:31.347Z,50.00
2017-08-20T13:13:58.856Z,49.70
2017-08-20T13:16:26.411Z,50.60
2017-08-20T13:18:53.891Z,50.50
2017-08-20T13:21:21.395Z,50.80
2017-08-20T13:23:48.872Z,51.50
2017-08-20T13:26:16.349Z,51.20
2017-08-20T13:28:43.848Z,50.90
2017-08-20T13:31:11.316Z,50.30
2017-08-20T13:33:38.816Z,50.00
2017-08-20T13:36:07.063Z,49.20
2017-08-20T13:38:34.567Z,49.50
2017-08-20T13:41:02.068Z,49.50
2017-08-20T13:43:29.539Z,49.70
2017-08-20T13:45:57.027Z,50.10
2017-08-20T13:48:24.507Z,48.90
2017-08-20T13:50:51.975Z,47.20
2017-08-20T13:53:19.467Z,45.60
2017-08-20T13:55:46.944Z,43.60
2017-08-20T13:58:14.524Z,42.30
2017-08-20T14:00:42.807Z,42.00
2017-08-20T14:03:11.043Z,42.50
2017-08-20T14:05:38.536Z,42.40
2017-08-20T14:08:06.819Z,43.40
2017-08-20T14:10:35.088Z,45.00
2017-08-20T14:13:02.565Z,45.00
2017-08-20T14:15:36.135Z,45.60
2017-08-20T14:18:03.800Z,46.00
2017-08-20T14:20:31.295Z,46.80
2017-08-20T14:22:58.785Z,46.70
2017-08-20T14:25:26.271Z,47.30
2017-08-20T14:27:53.788Z,47.10
2017-08-20T14:30:21.268Z,47.20
2017-08-20T14:32:48.764Z,47.40
2017-08-20T14:35:16.263Z,47.80
2017-08-20T14:37:43.739Z,48.20
2017-08-20T14:40:11.353Z,48.50
2017-08-20T14:42:39.595Z,48.70
2017-08-20T14:45:07.215Z,48.70
2017-08-20T14:47:34.748Z,48.30
2017-08-20T14:50:02.316Z,48.30
2017-08-20T14:52:29.855Z,47.80
2017-08-20T14:54:58.147Z,46.50
2017-08-20T14:57:26.428Z,44.50
2017-08-20T14:59:53.919Z,44.40
2017-08-20T15:02:21.408Z,44.20
2017-08-20T15:04:48.943Z,44.10
2017-08-20T15:07:16.421Z,44.20
2017-08-20T15:09:43.908Z,44.20
2017-08-20T15:12:11.404Z,44.80
2017-08-20T15:14:38.889Z,45.40
2017-08-20T15:17:06.402Z,46.10
2017-08-20T15:19:33.945Z,46.70
2017-08-20T15:22:01.433Z,46.60
2017-08-20T15:24:28.926Z,46.80
2017-08-20T15:26:56.415Z,46.30
2017-08-20T15:29:23.947Z,45.00
2017-08-20T15:31:51.419Z,44.90
2017-08-20T15:34:18.903Z,44.90
2017-08-20T15:36:47.159Z,44.20
2017-08-20T15:39:14.639Z,44.20
2017-08-20T15:41:42.132Z,44.80
2017-08-20T15:44:09.627Z,44.80
2017-08-20T15:46:37.138Z,44.50
2017-08-20T15:49:04.667Z,45.50
2017-08-20T15:51:32.131Z,44.10
2017-08-20T15:54:00.392Z,44.60
2017-08-20T15:56:28.633Z,45.60
2017-08-20T15:58:56.113Z,45.00
2017-08-20T16:01:23.627Z,44.90
2017-08-20T16:03:51.124Z,46.20
2017-08-20T16:06:18.625Z,45.90
2017-08-20T16:08:46.100Z,46.00
2017-08-20T16:11:13.575Z,46.10
2017-08-20T16:13:41.068Z,45.90
2017-08-20T16:16:08.581Z,45.80
2017-08-20T16:18:36.080Z,46.10
2017-08-20T16:21:03.778Z,46.30
2017-08-20T16:23:31.253Z,46.70
2017-08-20T16:25:58.802Z,46.80
2017-08-20T16:28:26.280Z,47.90
2017-08-20T16:30:53.783Z,47.60
2017-08-20T16:33:21.255Z,46.40
2017-08-20T16:35:48.755Z,46.10
2017-08-20T16:38:16.274Z,46.90
2017-08-20T16:40:44.594Z,46.80
2017-08-20T16:43:12.095Z,45.60
2017-08-20T16:45:39.576Z,45.50
2017-08-20T16:48:07.052Z,45.80
2017-08-20T16:50:34.543Z,46.00
2017-08-20T16:53:02.067Z,45.90
2017-08-20T16:55:29.570Z,46.40
2017-08-20T16:57:57.039Z,47.10
2017-08-20T17:00:24.511Z,47.40
2017-08-20T17:02:52.777Z,48.50
2017-08-20T17:05:20.308Z,48.00
2017-08-20T17:07:47.815Z,48.10
2017-08-20T17:10:16.059Z,48.70
2017-08-20T17:12:43.549Z,48.60
2017-08-20T17:15:11.815Z,49.20
2017-08-20T17:17:39.308Z,49.20
2017-08-20T17:20:06.818Z,49.30
2017-08-20T17:22:34.291Z,49.80
2017-08-20T17:25:01.770Z,49.80
2017-08-20T17:27:29.321Z,49.30
2017-08-20T17:29:57.563Z,49.30
2017-08-20T17:32:25.052Z,49.30
2017-08-20T17:34:52.528Z,49.00
2017-08-20T17:37:20.012Z,48.80
2017-08-20T17:39:47.507Z,48.10
2017-08-20T17:42:14.981Z,48.20
2017-08-20T17:44:43.256Z,48.20
2017-08-20T17:47:11.505Z,48.60
2017-08-20T17:49:39.008Z,48.60
2017-08-20T17:52:06.502Z,48.90
2017-08-20T17:54:34.052Z,49.40
2017-08-20T17:57:01.560Z,50.20
2017-08-20T17:59:29.033Z,50.40
2017-08-20T18:01:57.287Z,51.10
2017-08-20T18:04:24.771Z,51.10
2017-08-20T18:06:53.037Z,51.50
2017-08-20T18:09:21.308Z,51.70
2017-08-20T18:11:49.636Z,52.10
2017-08-20T18:14:17.111Z,52.00
2017-08-20T18:16:44.636Z,52.10
2017-08-20T18:19:12.182Z,52.70
2017-08-20T18:21:41.681Z,53.40
2017-08-20T18:24:09.919Z,52.60
2017-08-20T18:26:37.413Z,52.60
2017-08-20T18:29:05.672Z,53.50
2017-08-20T18:31:33.151Z,53.40
2017-08-20T18:34:01.628Z,53.30
2017-08-20T18:36:29.867Z,53.80
2017-08-20T18:38:57.369Z,53.70
2017-08-20T18:41:25.625Z,54.20
2017-08-20T18:43:53.104Z,54.20
2017-08-20T18:46:21.360Z,54.30
2017-08-20T18:48:48.837Z,54.30
2017-08-20T18:51:17.083Z,54.30
2017-08-20T18:53:44.583Z,54.20
2017-08-20T18:56:12.063Z,54.50
2017-08-20T18:58:39.556Z,54.60
2017-08-20T19:01:07.055Z,54.80
2017-08-20T19:03:35.290Z,54.70
2017-08-20T19:06:02.847Z,54.70
2017-08-20T19:08:30.343Z,54.70
2017-08-20T19:10:58.612Z,55.50
2017-08-20T19:13:26.944Z,55.30
2017-08-20T19:15:54.420Z,55.30
2017-08-20T19:18:21.912Z,56.00
2017-08-20T19:20:50.155Z,56.10
2017-08-20T19:23:17.640Z,56.10
2017-08-20T19:25:45.882Z,56.60
2017-08-20T19:28:13.375Z,56.60
2017-08-20T19:30:41.615Z,57.10
2017-08-20T19:33:09.115Z,57.10
2017-08-20T19:35:37.368Z,58.20
2017-08-20T19:38:04.839Z,58.20
2017-08-20T19:40:33.115Z,58.90
2017-08-20T19:43:00.683Z,58.50
2017-08-20T19:45:28.920Z,58.80
2017-08-20T19:47:56.464Z,58.70
2017-08-20T19:50:23.932Z,59.10
2017-08-20T19:52:51.415Z,59.20
2017-08-20T19:55:18.891Z,58.30
2017-08-20T19:57:47.208Z,59.50
2017-08-20T20:00:14.680Z,59.10
2017-08-20T20:02:42.165Z,58.70
2017-08-20T20:05:09.756Z,59.00
2017-08-20T20:07:37.992Z,60.00
2017-08-20T20:10:05.479Z,60.00
2017-08-20T20:12:33.718Z,59.80
2017-08-20T20:15:01.264Z,59.90
2017-08-20T20:17:28.731Z,59.90
2017-08-20T20:19:56.213Z,59.70
2017-08-20T20:22:23.720Z,60.60
2017-08-20T20:24:51.195Z,60.20
2017-08-20T20:27:18.685Z,60.50
2017-08-20T20:29:46.173Z,60.70
2017-08-20T20:32:14.441Z,60.30
2017-08-20T20:34:41.912Z,60.30
2017-08-20T20:37:10.156Z,60.70
2017-08-20T20:39:37.654Z,60.70
2017-08-20T20:42:05.141Z,61.00
2017-08-20T20:44:32.667Z,61.40
2017-08-20T20:47:00.932Z,61.90
2017-08-20T20:49:28.412Z,61.80
2017-08-20T20:51:55.903Z,60.70
2017-08-20T20:54:23.434Z,61.50
2017-08-20T20:56:50.932Z,61.70
2017-08-20T20:59:18.431Z,62.00
2017-08-20T21:01:46.697Z,62.00
2017-08-20T21:04:14.935Z,62.50
2017-08-20T21:06:42.419Z,62.50
2017-08-20T21:09:09.910Z,61.50
2017-08-20T21:11:37.399Z,62.10
2017-08-20T21:14:04.924Z,61.30
2017-08-20T21:16:33.163Z,61.30
2017-08-20T21:19:00.652Z,61.30
2017-08-20T21:21:28.895Z,61.20
2017-08-20T21:23:56.368Z,61.30
2017-08-20T21:26:23.852Z,61.30
2017-08-20T21:28:52.098Z,61.00
2017-08-20T21:31:19.596Z,61.00
2017-08-20T21:33:47.067Z,60.40
2017-08-20T21:36:14.563Z,59.60
2017-08-20T21:38:42.031Z,60.90
2017-08-20T21:41:09.507Z,60.90
2017-08-20T21:43:37.104Z,61.40
2017-08-20T21:46:04.596Z,62.00
2017-08-20T21:48:32.106Z,62.00
2017-08-20T21:50:59.599Z,61.50
2017-08-20T21:53:27.095Z,62.10
2017-08-20T21:55:54.560Z,62.10
2017-08-20T21:58:22.800Z,61.90
2017-08-20T22:00:50.289Z,61.90
2017-08-20T22:03:18.527Z,62.40
2017-08-20T22:05:46.019Z,62.20
2017-08-20T22:08:13.493Z,62.10
2017-08-20T22:10:41.763Z,59.50
2017-08-20T22:13:10.003Z,58.80
2017-08-20T22:15:37.495Z,58.70
2017-08-20T22:18:05.751Z,58.40
2017-08-20T22:20:33.233Z,58.80
2017-08-20T22:23:01.503Z,58.80
2017-08-20T22:25:29.751Z,58.30
2017-08-20T22:27:57.243Z,58.50
2017-08-20T22:30:25.524Z,58.80
2017-08-20T22:32:53.760Z,59.30
2017-08-20T22:35:21.249Z,59.20
2017-08-20T22:38:17.625Z,58.70
2017-08-20T22:40:45.106Z,59.00
2017-08-20T22:43:12.579Z,59.10
2017-08-20T22:45:40.162Z,59.00
2017-08-20T22:48:07.627Z,59.40
2017-08-20T22:50:35.184Z,59.70
2017-08-20T22:53:02.652Z,60.00
2017-08-20T22:55:30.240Z,60.40
2017-08-20T22:57:57.727Z,60.80
2017-08-20T23:00:25.204Z,60.40
2017-08-20T23:02:52.692Z,60.30
2017-08-20T23:05:20.167Z,60.90
2017-08-20T23:07:47.657Z,60.90
2017-08-20T23:10:15.124Z,60.80
2017-08-20T23:12:42.691Z,60.40
2017-08-20T23:15:10.176Z,59.70
2017-08-20T23:17:37.647Z,59.50
2017-08-20T23:20:05.228Z,59.50
2017-08-20T23:22:32.834Z,59.80
2017-08-20T23:25:00.325Z,59.50
2017-08-20T23:27:27.800Z,59.70
2017-08-20T23:29:55.295Z,59.80
2017-08-20T23:32:22.781Z,59.80
2017-08-20T23:34:50.255Z,59.70
2017-08-20T23:37:17.744Z,59.60
2017-08-20T23:39:45.259Z,59.20
2017-08-20T23:42:12.751Z,59.40
2017-08-20T23:44:40.223Z,59.50
2017-08-20T23:47:07.731Z,59.20
2017-08-20T23:49:35.207Z,59.30
2017-08-20T23:52:02.681Z,59.40
2017-08-20T23:54:30.160Z,59.70
2017-08-20T23:56:57.641Z,59.50
2017-08-20T23:59:25.127Z,59.60
